Time;durP1;ratioP1;P1;durP2;ratioP2;P2;SDS_P1;SDS_P2;PMS_P1;PMS_P2;Temp;Humidity;BMP_temperature;BMP_pressure;BME280_temperature;BME280_humidity;BME280_pressure;Samples;Min_cycle;Max_cycle;Signal;HPM_P1;HPM_P2
2022/10/01 00:01:06;;;;;;;9.73;5.78;;;11.40;99.90;;;;;;5073123;28;20040;-69
2022/10/01 00:03:34;;;;;;;8.15;5.45;;;11.30;99.90;;;;;;5066492;28;20050;-68
2022/10/01 00:06:03;;;;;;;10.50;6.38;;;11.30;99.90;;;;;;5046517;28;20123;-67
2022/10/01 00:08:29;;;;;;;8.57;6.32;;;11.30;99.90;;;;;;5052337;28;20486;-69
2022/10/01 00:10:55;;;;;;;12.55;7.10;;;11.20;99.90;;;;;;5062817;28;20709;-70
2022/10/01 00:13:22;;;;;;;11.15;6.35;;;11.20;99.90;;;;;;5057502;28;20053;-69
2022/10/01 00:15:47;;;;;;;11.35;7.07;;;11.40;99.90;;;;;;5061767;28;20044;-68
2022/10/01 00:18:13;;;;;;;11.07;7.38;;;11.20;99.90;;;;;;5074984;28;20044;-68
2022/10/01 00:20:42;;;;;;;10.20;7.10;;;11.20;99.90;;;;;;5076185;28;20072;-69
2022/10/01 00:23:12;;;;;;;11.82;7.32;;;11.30;99.90;;;;;;5068374;28;20406;-69
2022/10/01 00:25:39;;;;;;;11.07;7.07;;;11.40;99.90;;;;;;5070098;28;20047;-69
2022/10/01 00:28:06;;;;;;;11.20;7.82;;;11.20;99.90;;;;;;5058872;28;20626;-68
2022/10/01 00:30:32;;;;;;;10.93;7.28;;;11.20;99.90;;;;;;5071280;28;20473;-67
2022/10/01 00:32:58;;;;;;;11.63;7.03;;;11.40;99.90;;;;;;5071435;28;20128;-67
2022/10/01 00:35:24;;;;;;;9.63;7.50;;;11.10;99.90;;;;;;5074839;28;20123;-68
2022/10/01 00:37:51;;;;;;;10.57;7.25;;;11.10;99.90;;;;;;5084406;28;20414;-68
2022/10/01 00:40:19;;;;;;;12.35;8.02;;;11.10;99.90;;;;;;5079200;28;20468;-68
2022/10/01 00:42:46;;;;;;;12.85;8.32;;;11.10;99.90;;;;;;5077034;28;20101;-68
2022/10/01 00:45:15;;;;;;;11.43;7.93;;;11.10;99.90;;;;;;5073993;28;20127;-68
2022/10/01 00:47:49;;;;;;;10.95;8.10;;;11.00;99.90;;;;;;5076750;28;20048;-67
2022/10/01 00:50:23;;;;;;;12.75;8.23;;;11.10;99.90;;;;;;5050558;28;20551;-67
2022/10/01 00:53:00;;;;;;;11.88;8.27;;;11.10;99.90;;;;;;5058463;28;20683;-68
2022/10/01 00:55:35;;;;;;;12.27;8.48;;;11.10;99.90;;;;;;5069258;28;20131;-67
2022/10/01 00:58:02;;;;;;;13.15;8.05;;;11.10;99.90;;;;;;5062175;28;20131;-67
2022/10/01 01:00:29;;;;;;;13.75;8.30;;;11.10;99.90;;;;;;5079420;28;20055;-68
2022/10/01 01:02:54;;;;;;;13.65;8.40;;;11.00;99.90;;;;;;5076942;28;20051;-67
2022/10/01 01:05:21;;;;;;;13.75;8.02;;;11.00;99.90;;;;;;5078312;28;20121;-67
2022/10/01 01:07:51;;;;;;;11.18;8.43;;;11.00;99.90;;;;;;5076436;28;20039;-68
2022/10/01 01:10:28;;;;;;;13.45;8.73;;;11.00;99.90;;;;;;5078968;28;20052;-67
2022/10/01 01:12:54;;;;;;;11.98;8.18;;;11.00;99.90;;;;;;5073724;28;20128;-67
2022/10/01 01:15:49;;;;;;;13.90;9.10;;;11.00;99.90;;;;;;5057895;28;20455;-67
2022/10/01 01:18:39;;;;;;;13.70;8.52;;;11.00;99.90;;;;;;5076437;28;20041;-68
2022/10/01 01:21:31;;;;;;;13.82;8.68;;;11.00;99.90;;;;;;5060984;28;20052;-67
2022/10/01 01:24:19;;;;;;;12.77;8.82;;;10.90;99.90;;;;;;5074412;28;20083;-68
2022/10/01 01:26:55;;;;;;;12.98;7.97;;;11.00;99.90;;;;;;5056181;28;20036;-68
2022/10/01 01:29:31;;;;;;;11.63;8.10;;;11.00;99.90;;;;;;5074048;28;20140;-71
2022/10/01 01:32:06;;;;;;;12.13;7.85;;;10.90;99.90;;;;;;5058526;28;20076;-69
2022/10/01 01:34:33;;;;;;;10.07;6.80;;;11.00;99.90;;;;;;5073538;28;20081;-69
2022/10/01 01:37:10;;;;;;;11.18;8.13;;;10.90;99.90;;;;;;5057650;28;20055;-68
2022/10/01 01:39:40;;;;;;;11.95;7.90;;;10.90;99.90;;;;;;5069363;28;20500;-68
2022/10/01 01:42:16;;;;;;;11.88;8.73;;;10.90;99.90;;;;;;5072717;28;20565;-68
2022/10/01 01:44:46;;;;;;;11.85;8.55;;;10.90;99.90;;;;;;5073836;28;20102;-67
2022/10/01 01:47:12;;;;;;;11.88;8.48;;;10.90;99.90;;;;;;5078231;28;20044;-67
2022/10/01 01:49:39;;;;;;;11.75;8.13;;;10.90;99.90;;;;;;5070118;28;20048;-68
2022/10/01 01:52:12;;;;;;;12.27;8.02;;;10.90;99.90;;;;;;5061071;28;20062;-67
2022/10/01 01:54:39;;;;;;;11.27;8.30;;;10.90;99.90;;;;;;5071639;28;20084;-68
2022/10/01 01:57:06;;;;;;;11.50;8.00;;;10.80;99.90;;;;;;5068029;28;20043;-68
2022/10/01 01:59:32;;;;;;;11.63;7.30;;;11.00;99.90;;;;;;5076467;28;20098;-68
2022/10/01 02:01:59;;;;;;;10.77;7.53;;;10.90;99.90;;;;;;5081628;28;20449;-68
2022/10/01 02:04:36;;;;;;;10.27;6.93;;;10.90;99.90;;;;;;5055615;28;20044;-68
2022/10/01 02:07:28;;;;;;;9.25;6.80;;;10.90;99.90;;;;;;5076359;28;20443;-68
2022/10/01 02:10:18;;;;;;;11.27;6.47;;;10.90;99.90;;;;;;5062506;28;20041;-68
2022/10/01 02:12:52;;;;;;;9.88;6.57;;;10.90;99.90;;;;;;5065248;28;20429;-67
2022/10/01 02:15:21;;;;;;;8.43;6.03;;;10.90;99.90;;;;;;5066858;28;20047;-69
2022/10/01 02:17:52;;;;;;;8.90;5.80;;;10.90;99.90;;;;;;5065204;28;21112;-67
2022/10/01 02:20:40;;;;;;;9.60;6.53;;;10.90;99.90;;;;;;5068181;28;20040;-68
2022/10/01 02:23:11;;;;;;;9.40;6.45;;;10.90;99.90;;;;;;5065456;28;20101;-68
2022/10/01 02:25:42;;;;;;;12.18;6.60;;;11.00;99.90;;;;;;5047916;28;20113;-67
2022/10/01 02:28:15;;;;;;;8.48;5.38;;;10.90;99.90;;;;;;5054507;28;20053;-67
2022/10/01 02:30:45;;;;;;;9.00;5.90;;;10.90;99.90;;;;;;5075835;28;20060;-67
2022/10/01 02:33:15;;;;;;;8.32;5.65;;;10.90;99.90;;;;;;5073657;28;20052;-67
2022/10/01 02:35:44;;;;;;;9.50;5.93;;;10.90;99.90;;;;;;5059532;28;20424;-67
2022/10/01 02:38:11;;;;;;;9.18;5.60;;;10.90;99.90;;;;;;5075434;28;20040;-68
2022/10/01 02:40:41;;;;;;;8.93;5.72;;;10.90;99.90;;;;;;5072978;28;20044;-68
2022/10/01 02:43:16;;;;;;;8.18;4.93;;;10.90;99.90;;;;;;5076114;28;20101;-68
2022/10/01 02:45:45;;;;;;;8.65;5.97;;;10.90;99.90;;;;;;5078643;28;20414;-67
2022/10/01 02:48:16;;;;;;;8.52;5.40;;;11.00;99.90;;;;;;5077060;28;20096;-68
2022/10/01 02:50:53;;;;;;;7.60;5.00;;;10.90;99.90;;;;;;5071302;28;21352;-68
2022/10/01 02:53:41;;;;;;;6.90;4.70;;;10.90;99.90;;;;;;5073436;28;20040;-68
2022/10/01 02:56:09;;;;;;;7.68;5.22;;;10.90;99.90;;;;;;5069971;28;20078;-67
2022/10/01 02:58:35;;;;;;;7.85;5.18;;;11.00;99.90;;;;;;5067023;28;20063;-67
2022/10/01 03:01:01;;;;;;;8.48;5.18;;;10.90;99.90;;;;;;5077713;28;20048;-67
2022/10/01 03:03:27;;;;;;;8.13;5.13;;;11.00;99.90;;;;;;5081288;28;20500;-67
2022/10/01 03:05:52;;;;;;;8.00;5.47;;;11.00;99.90;;;;;;5077028;28;20055;-68
2022/10/01 03:08:18;;;;;;;9.10;5.15;;;11.00;99.90;;;;;;5072697;28;20048;-67
2022/10/01 03:10:44;;;;;;;7.82;4.80;;;11.00;99.90;;;;;;5077985;28;20064;-68
2022/10/01 03:13:10;;;;;;;8.23;4.95;;;11.00;99.90;;;;;;5074057;28;20144;-68
2022/10/01 03:15:36;;;;;;;8.77;4.68;;;11.00;99.90;;;;;;5076387;28;20050;-69
2022/10/01 03:18:01;;;;;;;7.35;4.10;;;11.00;99.90;;;;;;5079252;28;20047;-68
2022/10/01 03:20:27;;;;;;;7.00;4.88;;;11.00;99.90;;;;;;5074781;28;20036;-67
2022/10/01 03:22:53;;;;;;;7.53;4.57;;;11.10;99.90;;;;;;5075954;28;20211;-67
2022/10/01 03:25:18;;;;;;;6.45;3.90;;;11.10;99.90;;;;;;5076509;28;20488;-68
2022/10/01 03:27:45;;;;;;;7.68;4.05;;;11.10;99.90;;;;;;5055531;28;20115;-68
2022/10/01 03:30:11;;;;;;;8.20;4.22;;;11.10;99.90;;;;;;5078606;28;20093;-68
2022/10/01 03:32:37;;;;;;;8.15;4.00;;;11.10;99.90;;;;;;5075117;28;20113;-67
2022/10/01 03:35:03;;;;;;;6.85;3.72;;;11.10;99.90;;;;;;5076821;28;20753;-68
2022/10/01 03:37:29;;;;;;;5.75;3.20;;;11.10;99.90;;;;;;5077912;28;20488;-69
2022/10/01 03:39:54;;;;;;;7.90;3.20;;;11.10;99.90;;;;;;5052362;28;20089;-67
2022/10/01 03:42:20;;;;;;;5.15;3.05;;;11.10;99.90;;;;;;5076751;28;20072;-68
2022/10/01 03:44:47;;;;;;;6.47;3.00;;;11.10;99.90;;;;;;5077856;28;20048;-67
2022/10/01 03:47:13;;;;;;;5.85;2.83;;;11.10;99.90;;;;;;5060352;28;20044;-68
2022/10/01 03:49:38;;;;;;;5.75;2.45;;;11.20;99.90;;;;;;5070962;28;20040;-67
2022/10/01 03:52:07;;;;;;;4.85;2.35;;;11.20;99.90;;;;;;5077381;28;20054;-67
2022/10/01 03:54:33;;;;;;;5.43;2.50;;;11.40;99.90;;;;;;5070970;28;20116;-67
2022/10/01 03:56:59;;;;;;;7.50;2.47;;;11.20;99.90;;;;;;5054799;28;20135;-67
2022/10/01 03:59:26;;;;;;;4.90;2.10;;;11.20;99.90;;;;;;5077338;28;20048;-67
2022/10/01 04:01:53;;;;;;;6.38;2.40;;;11.20;99.90;;;;;;5072479;28;20567;-68
2022/10/01 04:04:19;;;;;;;5.05;1.95;;;11.30;99.90;;;;;;5060541;28;20039;-67
2022/10/01 04:06:44;;;;;;;6.00;2.33;;;11.40;99.90;;;;;;5076969;28;20028;-67
2022/10/01 04:09:10;;;;;;;4.00;2.30;;;11.20;99.90;;;;;;5068740;28;20056;-67
2022/10/01 04:11:38;;;;;;;4.03;1.98;;;11.30;99.90;;;;;;5066778;28;20046;-67
2022/10/01 04:14:07;;;;;;;5.32;2.53;;;11.30;99.90;;;;;;5071438;28;20068;-66
2022/10/01 04:16:35;;;;;;;4.40;2.35;;;11.30;99.90;;;;;;5074917;28;20462;-67
2022/10/01 04:19:02;;;;;;;3.70;1.83;;;11.30;99.90;;;;;;5057990;28;20056;-67
2022/10/01 04:21:28;;;;;;;3.95;2.15;;;11.30;99.90;;;;;;5077869;28;20036;-67
2022/10/01 04:23:53;;;;;;;4.22;2.15;;;11.30;99.90;;;;;;5076389;28;20040;-67
2022/10/01 04:26:19;;;;;;;6.22;2.63;;;11.30;99.90;;;;;;5077810;28;20541;-67
2022/10/01 04:28:45;;;;;;;5.10;2.30;;;11.40;99.90;;;;;;5078746;28;20143;-68
2022/10/01 04:31:24;;;;;;;5.25;2.20;;;11.30;99.90;;;;;;5060870;28;20046;-67
2022/10/01 04:33:54;;;;;;;3.63;2.17;;;11.80;99.90;;;;;;5078828;28;20055;-67
2022/10/01 04:36:20;;;;;;;5.15;2.28;;;11.30;99.90;;;;;;5087117;28;20053;-67
2022/10/01 04:38:49;;;;;;;5.25;2.30;;;11.40;99.90;;;;;;5073936;28;20046;-67
2022/10/01 04:41:14;;;;;;;5.32;2.70;;;11.30;99.90;;;;;;5080738;28;20040;-67
2022/10/01 04:43:40;;;;;;;4.28;2.50;;;11.30;99.90;;;;;;5064421;28;20648;-68
2022/10/01 04:46:06;;;;;;;4.60;2.40;;;11.40;99.90;;;;;;5062058;28;20056;-67
2022/10/01 04:48:31;;;;;;;5.30;2.60;;;11.60;99.90;;;;;;5063257;28;20063;-67
2022/10/01 04:50:57;;;;;;;5.35;2.80;;;11.40;99.90;;;;;;5069332;28;20484;-68
2022/10/01 04:53:23;;;;;;;4.90;2.53;;;11.60;99.90;;;;;;5072182;28;20145;-67
2022/10/01 04:55:48;;;;;;;5.05;2.60;;;11.40;99.90;;;;;;5074313;28;20048;-68
2022/10/01 04:58:14;;;;;;;6.18;2.53;;;11.40;99.90;;;;;;5054626;28;20059;-68
2022/10/01 05:00:40;;;;;;;7.53;2.95;;;11.50;99.90;;;;;;5068446;28;20466;-68
2022/10/01 05:03:06;;;;;;;5.80;3.15;;;11.40;99.90;;;;;;5046434;28;20041;-67
2022/10/01 05:05:33;;;;;;;7.47;2.95;;;11.50;99.90;;;;;;5051818;28;20044;-69
2022/10/01 05:08:00;;;;;;;5.00;2.90;;;11.50;99.90;;;;;;5080252;28;20061;-67
2022/10/01 05:10:26;;;;;;;4.63;2.50;;;11.60;99.90;;;;;;5076701;28;20045;-68
2022/10/01 05:12:52;;;;;;;5.10;2.97;;;11.50;99.90;;;;;;5074490;28;20730;-67
2022/10/01 05:15:18;;;;;;;4.53;2.78;;;11.50;99.90;;;;;;5053015;28;20045;-68
2022/10/01 05:17:45;;;;;;;6.07;2.90;;;11.50;99.90;;;;;;5070491;28;20056;-68
2022/10/01 05:20:20;;;;;;;7.03;3.30;;;11.50;99.90;;;;;;5066929;28;20505;-69
2022/10/01 05:22:47;;;;;;;6.28;3.10;;;11.60;99.90;;;;;;5049567;28;20509;-68
2022/10/01 05:25:14;;;;;;;5.35;3.20;;;11.60;99.90;;;;;;5053596;28;20162;-68
2022/10/01 05:27:40;;;;;;;6.80;3.15;;;11.60;99.90;;;;;;5069661;28;20090;-68
2022/10/01 05:30:09;;;;;;;6.85;3.40;;;11.90;99.90;;;;;;5068497;28;20044;-68
2022/10/01 05:32:35;;;;;;;5.50;3.22;;;11.60;99.90;;;;;;5067013;28;20351;-67
2022/10/01 05:35:02;;;;;;;6.07;3.20;;;11.60;99.90;;;;;;5050908;28;20037;-67
2022/10/01 05:37:28;;;;;;;7.20;3.30;;;11.60;99.90;;;;;;5070290;28;20078;-67
2022/10/01 05:39:54;;;;;;;6.75;3.80;;;11.60;99.90;;;;;;5067659;28;20052;-67
2022/10/01 05:42:20;;;;;;;9.02;3.53;;;11.70;99.90;;;;;;5067594;28;20048;-67
2022/10/01 05:44:45;;;;;;;5.93;3.50;;;11.80;99.90;;;;;;5064653;28;20049;-68
2022/10/01 05:47:15;;;;;;;6.35;3.97;;;11.70;99.90;;;;;;5066076;28;20042;-67
2022/10/01 05:49:42;;;;;;;8.93;4.13;;;11.70;99.90;;;;;;5067051;28;20048;-68
2022/10/01 05:52:12;;;;;;;8.13;4.20;;;11.70;99.90;;;;;;5063264;28;20040;-68
2022/10/01 05:54:38;;;;;;;6.35;3.92;;;11.70;99.90;;;;;;5066787;28;20048;-67
2022/10/01 05:57:05;;;;;;;6.63;4.00;;;11.70;99.90;;;;;;5068697;28;20058;-67
2022/10/01 05:59:31;;;;;;;9.30;4.50;;;11.70;99.90;;;;;;5064344;28;20449;-66
2022/10/01 06:01:56;;;;;;;8.05;5.00;;;11.60;99.90;;;;;;5066364;28;20040;-66
2022/10/01 06:04:22;;;;;;;6.20;4.32;;;11.80;99.90;;;;;;5062598;28;20053;-66
2022/10/01 06:06:48;;;;;;;11.15;4.85;;;11.70;99.90;;;;;;5064166;28;20036;-67
2022/10/01 06:09:14;;;;;;;10.43;5.32;;;11.80;99.90;;;;;;5058315;28;20452;-67
2022/10/01 06:11:40;;;;;;;8.82;4.85;;;11.80;99.90;;;;;;5060962;28;20044;-66
2022/10/01 06:14:06;;;;;;;8.93;5.05;;;11.90;99.90;;;;;;5064280;28;20115;-67
2022/10/01 06:16:32;;;;;;;10.55;5.18;;;11.90;99.90;;;;;;5066419;28;20127;-67
2022/10/01 06:18:58;;;;;;;8.75;4.97;;;11.90;99.90;;;;;;5064532;28;20123;-66
2022/10/01 06:21:25;;;;;;;9.02;5.40;;;11.90;99.90;;;;;;5063491;28;20033;-66
2022/10/01 06:23:51;;;;;;;11.10;5.65;;;11.90;99.90;;;;;;5063231;28;20071;-68
2022/10/01 06:26:17;;;;;;;10.65;5.57;;;12.10;99.90;;;;;;5050762;28;20083;-68
2022/10/01 06:28:43;;;;;;;12.93;5.95;;;12.00;99.90;;;;;;5067638;28;20133;-68
2022/10/01 06:31:10;;;;;;;14.75;5.00;;;12.00;99.90;;;;;;5067352;28;20177;-68
2022/10/01 06:33:36;;;;;;;13.68;4.95;;;12.00;99.90;;;;;;5048249;28;20568;-67
2022/10/01 06:36:03;;;;;;;12.68;5.28;;;12.20;99.90;;;;;;5059671;28;20181;-67
2022/10/01 06:38:29;;;;;;;10.35;4.97;;;12.10;99.90;;;;;;5086544;28;20040;-67
2022/10/01 06:41:00;;;;;;;9.65;5.05;;;12.20;99.90;;;;;;5050575;28;20036;-67
2022/10/01 06:43:28;;;;;;;10.88;5.50;;;12.20;99.90;;;;;;5035383;28;20048;-68
2022/10/01 06:45:54;;;;;;;12.90;5.00;;;12.20;99.90;;;;;;5064037;28;20512;-68
2022/10/01 06:48:20;;;;;;;12.70;5.90;;;12.20;99.90;;;;;;5058849;28;20049;-69
2022/10/01 06:50:48;;;;;;;12.13;5.05;;;12.20;99.90;;;;;;5047725;28;20645;-68
2022/10/01 06:53:16;;;;;;;13.75;5.38;;;12.30;99.90;;;;;;5037475;28;20471;-68
2022/10/01 06:55:42;;;;;;;12.30;5.60;;;12.40;99.90;;;;;;5053233;28;20409;-68
2022/10/01 06:58:18;;;;;;;16.85;5.78;;;12.50;99.90;;;;;;5047263;28;21501;-68
2022/10/01 07:00:44;;;;;;;15.07;4.90;;;12.50;99.90;;;;;;5048924;28;20370;-68
2022/10/01 07:03:36;;;;;;;8.45;4.07;;;12.60;99.90;;;;;;5053521;28;20052;-68
2022/10/01 07:06:03;;;;;;;10.85;4.00;;;12.90;99.90;;;;;;5035015;28;20048;-68
2022/10/01 07:08:29;;;;;;;8.75;3.50;;;12.90;99.90;;;;;;5065140;28;20040;-68
2022/10/01 07:11:03;;;;;;;10.10;3.20;;;13.00;99.90;;;;;;5055343;28;20060;-68
2022/10/01 07:13:29;;;;;;;12.68;3.65;;;13.00;99.90;;;;;;5059628;28;20080;-68
2022/10/01 07:15:55;;;;;;;9.10;3.05;;;13.00;99.90;;;;;;5057928;28;20083;-68
2022/10/01 07:18:21;;;;;;;10.82;3.20;;;13.00;99.90;;;;;;5040168;28;20600;-68
2022/10/01 07:20:47;;;;;;;9.60;3.03;;;13.00;99.90;;;;;;5061198;28;20489;-68
2022/10/01 07:23:14;;;;;;;12.30;2.80;;;13.10;99.90;;;;;;5055176;28;20059;-68
2022/10/01 07:25:41;;;;;;;10.50;3.70;;;13.10;99.90;;;;;;5056506;28;20773;-68
2022/10/01 07:28:15;;;;;;;8.52;2.75;;;13.10;99.90;;;;;;5058995;28;20444;-68
2022/10/01 07:30:42;;;;;;;11.43;2.70;;;13.00;99.90;;;;;;5059062;28;20558;-68
2022/10/01 07:33:08;;;;;;;10.02;2.60;;;13.00;99.90;;;;;;5055876;28;20055;-68
2022/10/01 07:35:36;;;;;;;13.30;2.83;;;13.00;99.90;;;;;;5062975;28;20033;-68
2022/10/01 07:38:06;;;;;;;10.98;2.50;;;13.10;99.90;;;;;;5062983;28;20059;-68
2022/10/01 07:40:32;;;;;;;10.52;2.60;;;13.20;99.90;;;;;;5058148;28;20124;-68
2022/10/01 07:42:57;;;;;;;11.15;2.53;;;13.30;99.90;;;;;;5058827;28;20127;-68
2022/10/01 07:45:24;;;;;;;10.50;2.40;;;13.40;99.90;;;;;;5061295;28;20048;-68
2022/10/01 07:47:54;;;;;;;9.10;2.22;;;13.50;99.90;;;;;;5059597;28;20135;-68
2022/10/01 07:50:21;;;;;;;11.10;1.98;;;13.60;99.90;;;;;;5060792;28;20070;-68
2022/10/01 07:52:51;;;;;;;10.30;2.08;;;13.80;99.90;;;;;;5059039;28;20052;-68
2022/10/01 07:55:17;;;;;;;11.43;1.65;;;13.90;99.90;;;;;;5059605;28;20051;-68
2022/10/01 07:57:48;;;;;;;9.13;1.63;;;14.00;99.90;;;;;;5061002;28;20459;-68
2022/10/01 08:00:14;;;;;;;8.45;1.83;;;14.10;99.90;;;;;;5060471;28;20543;-68
2022/10/01 08:02:44;;;;;;;10.25;1.65;;;14.20;99.90;;;;;;5062035;28;20591;-68
2022/10/01 08:05:16;;;;;;;10.43;1.80;;;14.30;99.90;;;;;;5064721;28;20554;-68
2022/10/01 08:07:42;;;;;;;6.72;1.48;;;14.40;99.90;;;;;;5042770;28;20106;-68
2022/10/01 08:10:08;;;;;;;10.45;1.90;;;14.50;99.90;;;;;;5045641;28;21154;-69
2022/10/01 08:12:34;;;;;;;11.18;2.17;;;14.60;99.90;;;;;;5065880;28;20147;-68
2022/10/01 08:15:03;;;;;;;12.98;2.30;;;14.70;99.90;;;;;;5064232;28;20093;-68
2022/10/01 08:17:29;;;;;;;14.18;2.10;;;14.80;99.90;;;;;;5043980;28;20319;-68
2022/10/01 08:19:55;;;;;;;9.18;1.33;;;14.80;99.90;;;;;;5060578;28;20403;-68
2022/10/01 08:22:20;;;;;;;10.82;1.92;;;15.00;99.90;;;;;;5060322;28;20059;-68
2022/10/01 08:24:46;;;;;;;10.93;1.70;;;15.00;99.90;;;;;;5043537;28;20413;-68
2022/10/01 08:27:12;;;;;;;11.80;1.98;;;15.10;99.90;;;;;;5057239;28;20428;-68
2022/10/01 08:29:38;;;;;;;12.43;2.13;;;15.20;99.90;;;;;;5044683;28;20039;-68
2022/10/01 08:32:07;;;;;;;16.83;2.80;;;15.20;99.90;;;;;;5056242;28;20061;-68
2022/10/01 08:34:34;;;;;;;13.23;2.33;;;15.30;99.90;;;;;;5060796;28;20068;-68
2022/10/01 08:36:59;;;;;;;12.40;1.70;;;15.40;99.90;;;;;;5085394;28;20032;-68
2022/10/01 08:39:25;;;;;;;11.07;1.98;;;15.40;99.90;;;;;;5089861;28;20052;-68
2022/10/01 08:42:13;;;;;;;15.70;2.60;;;15.50;99.90;;;;;;5044620;28;20049;-67
2022/10/01 08:44:43;;;;;;;14.50;2.15;;;15.60;99.90;;;;;;5064063;28;20045;-68
2022/10/01 08:47:37;;;;;;;14.70;2.60;;;15.70;99.90;;;;;;5057010;28;20079;-68
2022/10/01 08:50:29;;;;;;;10.52;2.03;;;15.70;99.90;;;;;;5057558;28;20048;-68
2022/10/01 08:53:00;;;;;;;16.83;3.45;;;15.70;99.90;;;;;;5059353;28;20049;-68
2022/10/01 08:55:34;;;;;;;14.52;2.67;;;15.80;99.90;;;;;;5045282;28;20123;-68
2022/10/01 08:58:06;;;;;;;18.17;2.28;;;15.70;99.90;;;;;;5040933;28;20052;-69
2022/10/01 09:00:37;;;;;;;;;;;15.70;99.90;;;;;;5039481;28;20044;-68
2022/10/01 09:03:11;;;;;;;14.60;3.03;;;15.70;99.90;;;;;;5051825;28;19935;-68
2022/10/01 09:06:02;;;;;;;16.63;2.35;;;15.70;99.90;;;;;;5080457;28;20044;-68
2022/10/01 09:08:43;;;;;;;14.43;2.53;;;15.70;99.90;;;;;;5068965;28;20489;-68
2022/10/01 09:11:39;;;;;;;18.40;3.03;;;15.80;99.90;;;;;;5058385;28;20413;-68
2022/10/01 09:14:26;;;;;;;18.13;2.63;;;15.80;99.90;;;;;;5043839;28;20076;-69
2022/10/01 09:17:06;;;;;;;12.38;2.00;;;15.80;99.90;;;;;;5042061;28;20127;-69
2022/10/01 09:20:16;;;;;;;16.83;2.05;;;15.80;99.90;;;;;;5064075;28;20055;-68
2022/10/01 09:23:11;;;;;;;13.45;2.30;;;15.80;99.90;;;;;;5060482;28;20508;-69
2022/10/01 09:25:38;;;;;;;14.27;2.25;;;15.80;99.90;;;;;;5052638;28;20079;-68
2022/10/01 09:28:18;;;;;;;9.23;1.65;;;15.90;99.90;;;;;;5056824;28;20105;-68
2022/10/01 09:30:59;;;;;;;10.57;2.10;;;15.90;99.90;;;;;;5038654;28;20077;-68
2022/10/01 09:33:40;;;;;;;12.90;1.60;;;15.80;99.90;;;;;;5041786;28;20060;-68
2022/10/01 09:36:11;;;;;;;9.38;1.60;;;15.70;99.90;;;;;;5048842;28;20047;-68
2022/10/01 09:38:42;;;;;;;7.18;1.40;;;15.60;99.90;;;;;;5088879;28;20505;-68
2022/10/01 09:41:10;;;;;;;7.30;1.33;;;15.60;99.90;;;;;;5060880;28;20149;-69
2022/10/01 09:43:41;;;;;;;9.68;2.53;;;15.60;99.90;;;;;;5046301;28;20379;-68
2022/10/01 09:46:15;;;;;;;12.43;1.70;;;15.60;99.90;;;;;;5053489;28;20040;-69
2022/10/01 09:49:02;;;;;;;7.60;1.33;;;15.50;99.90;;;;;;5059306;28;20047;-68
2022/10/01 09:51:40;;;;;;;8.95;1.73;;;15.40;99.90;;;;;;5045829;28;20082;-68
2022/10/01 09:54:26;;;;;;;9.50;1.58;;;15.30;99.90;;;;;;5058081;28;20052;-68
2022/10/01 09:57:03;;;;;;;11.65;1.67;;;15.20;99.90;;;;;;5090260;28;20063;-68
2022/10/01 09:59:43;;;;;;;9.02;1.88;;;15.10;99.90;;;;;;5054755;28;20036;-68
2022/10/01 10:02:22;;;;;;;6.63;1.30;;;14.90;99.90;;;;;;5039486;28;20407;-68
2022/10/01 10:05:03;;;;;;;11.15;1.52;;;14.90;99.90;;;;;;5068375;28;20131;-68
2022/10/01 10:07:31;;;;;;;10.30;1.38;;;14.80;99.90;;;;;;5064702;28;20159;-68
2022/10/01 10:10:06;;;;;;;15.68;1.92;;;14.70;99.90;;;;;;5060116;28;20067;-67
2022/10/01 10:12:33;;;;;;;6.60;1.30;;;14.70;99.90;;;;;;5059183;28;20220;-68
2022/10/01 10:15:15;;;;;;;11.65;1.98;;;14.60;99.90;;;;;;5062758;28;20048;-67
2022/10/01 10:17:43;;;;;;;8.13;1.50;;;14.60;99.90;;;;;;5063302;28;20044;-67
2022/10/01 10:20:31;;;;;;;9.32;1.27;;;14.50;99.90;;;;;;5049815;28;20136;-67
2022/10/01 10:23:22;;;;;;;8.13;1.23;;;14.50;99.90;;;;;;5054002;28;20047;-67
2022/10/01 10:26:04;;;;;;;4.70;1.27;;;14.40;99.90;;;;;;5028689;28;20060;-67
2022/10/01 10:28:43;;;;;;;;;;;14.40;99.90;;;;;;5059689;28;20459;-67
2022/10/01 10:31:26;;;;;;;8.43;1.42;;;14.40;99.90;;;;;;5039341;28;20520;-67
2022/10/01 10:33:54;;;;;;;10.48;1.50;;;14.40;99.90;;;;;;5052292;28;20040;-67
2022/10/01 10:36:25;;;;;;;9.32;1.40;;;14.40;99.90;;;;;;5060397;28;20048;-67
2022/10/01 10:38:52;;;;;;;8.38;1.83;;;14.40;99.90;;;;;;5050639;28;20067;-67
2022/10/01 10:41:24;;;;;;;8.40;1.30;;;14.50;99.90;;;;;;5084036;28;20059;-67
2022/10/01 10:43:55;;;;;;;12.48;1.50;;;14.50;99.90;;;;;;5054161;28;20380;-67
2022/10/01 10:46:28;;;;;;;11.38;1.80;;;14.60;99.90;;;;;;5057988;28;20169;-67
2022/10/01 10:49:28;;;;;;;8.80;1.58;;;14.70;99.90;;;;;;5051880;28;20076;-67
2022/10/01 10:51:56;;;;;;;8.82;1.92;;;14.70;99.90;;;;;;5062328;28;20048;-67
2022/10/01 10:54:28;;;;;;;6.05;1.20;;;14.70;99.90;;;;;;5059058;28;20047;-68
2022/10/01 10:57:01;;;;;;;3.08;0.82;;;14.70;99.90;;;;;;5057763;28;20471;-67
2022/10/01 10:59:31;;;;;;;8.65;1.30;;;14.70;99.90;;;;;;5045580;28;20048;-68
2022/10/01 11:02:03;;;;;;;7.38;1.23;;;14.70;99.90;;;;;;5058230;28;20049;-68
2022/10/01 11:04:44;;;;;;;8.32;1.20;;;14.60;99.90;;;;;;5062963;28;20394;-68
2022/10/01 11:07:12;;;;;;;5.25;1.20;;;14.60;99.90;;;;;;5062512;28;20068;-68
2022/10/01 11:10:35;;;;;;;7.30;1.27;;;14.60;99.90;;;;;;5051277;28;20114;-68
2022/10/01 11:13:19;;;;;;;8.05;1.15;;;14.60;99.90;;;;;;5020605;28;20053;-68
2022/10/01 11:15:58;;;;;;;8.18;1.10;;;14.60;99.90;;;;;;4985054;28;20147;-68
2022/10/01 11:18:46;;;;;;;6.93;1.27;;;14.60;99.90;;;;;;5050575;28;20056;-68
2022/10/01 11:21:40;;;;;;;6.13;1.85;;;14.60;99.90;;;;;;5040537;28;20090;-68
2022/10/01 11:24:21;;;;;;;8.48;1.80;;;14.80;99.90;;;;;;5056744;28;20058;-68
2022/10/01 11:26:46;;;;;;;8.80;2.13;;;14.90;99.90;;;;;;5056803;28;20072;-68
2022/10/01 11:29:37;;;;;;;7.10;1.67;;;15.00;99.90;;;;;;5057120;28;20505;-68
2022/10/01 11:32:44;;;;;;;6.97;1.70;;;15.10;99.90;;;;;;5043920;28;20044;-68
2022/10/01 11:35:33;;;;;;;14.55;2.00;;;15.20;99.90;;;;;;5072268;28;20060;-68
2022/10/01 11:38:07;;;;;;;9.68;1.85;;;15.30;99.90;;;;;;5026038;28;20060;-68
2022/10/01 11:40:42;;;;;;;13.55;2.10;;;15.40;99.90;;;;;;5054083;28;20053;-68
2022/10/01 11:43:29;;;;;;;19.67;2.10;;;15.50;99.90;;;;;;5045738;28;20097;-68
2022/10/01 11:46:08;;;;;;;12.27;2.08;;;15.60;99.90;;;;;;5058838;28;20088;-66
2022/10/01 11:48:39;;;;;;;15.40;2.30;;;15.60;99.90;;;;;;5059878;28;20136;-68
2022/10/01 11:51:12;;;;;;;12.63;1.83;;;15.60;99.90;;;;;;5062370;28;20056;-68
2022/10/01 11:53:48;;;;;;;14.15;1.90;;;15.60;99.90;;;;;;5045116;28;20052;-68
2022/10/01 11:59:41;;;;;;;11.95;1.83;;;15.60;99.90;;;;;;5062300;28;20041;-68
2022/10/01 12:02:30;;;;;;;17.48;2.58;;;15.70;99.90;;;;;;5059282;28;20056;-68
2022/10/01 12:05:15;;;;;;;15.20;2.03;;;15.60;99.90;;;;;;5062008;28;20070;-68
2022/10/01 12:07:52;;;;;;;16.88;2.65;;;15.60;99.90;;;;;;5057875;28;20740;-68
2022/10/01 12:10:44;;;;;;;8.57;1.70;;;15.60;99.90;;;;;;5046708;28;20053;-68
2022/10/01 12:13:31;;;;;;;11.25;2.08;;;15.60;99.90;;;;;;5054779;28;20086;-68
2022/10/01 12:16:04;;;;;;;13.27;1.83;;;15.60;99.90;;;;;;5053110;28;20040;-68
2022/10/01 12:18:52;;;;;;;9.52;1.45;;;15.60;99.90;;;;;;5057268;28;21738;-69
2022/10/01 12:21:35;;;;;;;15.27;1.92;;;15.60;99.90;;;;;;5052874;28;20075;-68
2022/10/01 12:24:15;;;;;;;11.45;1.77;;;15.70;99.90;;;;;;5078989;28;21585;-69
2022/10/01 12:26:40;;;;;;;10.07;1.77;;;15.70;99.90;;;;;;5055929;28;20051;-68
2022/10/01 12:29:24;;;;;;;13.10;2.00;;;15.70;99.90;;;;;;5053378;28;20048;-69
2022/10/01 12:31:58;;;;;;;14.85;2.13;;;15.70;99.90;;;;;;5049557;28;21120;-69
2022/10/01 12:34:26;;;;;;;12.15;1.95;;;15.80;99.90;;;;;;5063663;28;20418;-69
2022/10/01 12:37:11;;;;;;;10.48;1.70;;;15.80;99.90;;;;;;5054966;28;20142;-68
2022/10/01 12:39:56;;;;;;;12.23;1.88;;;15.80;99.90;;;;;;5056103;28;20044;-69
2022/10/01 12:42:46;;;;;;;15.63;2.90;;;15.90;99.90;;;;;;5037904;28;20048;-67
2022/10/01 12:45:42;;;;;;;12.43;2.08;;;15.90;99.90;;;;;;5059547;28;20052;-68
2022/10/01 12:48:35;;;;;;;11.90;1.75;;;15.90;99.90;;;;;;5060790;28;20056;-68
2022/10/01 12:51:36;;;;;;;12.70;2.47;;;16.00;99.90;;;;;;5058272;28;21339;-68
2022/10/01 12:54:06;;;;;;;13.98;2.20;;;16.00;99.90;;;;;;5050044;28;20150;-68
2022/10/01 12:56:48;;;;;;;11.85;2.00;;;16.00;99.90;;;;;;5055448;28;20588;-68
2022/10/01 12:59:32;;;;;;;10.88;2.05;;;16.00;99.90;;;;;;5060605;28;20509;-68
2022/10/01 13:02:19;;;;;;;8.55;1.30;;;15.80;99.90;;;;;;5052122;28;20478;-69
2022/10/01 13:05:03;;;;;;;8.23;1.42;;;15.70;99.90;;;;;;5071723;28;20143;-68
2022/10/01 13:07:51;;;;;;;9.57;1.80;;;15.60;99.90;;;;;;5061565;28;20121;-69
2022/10/01 13:10:57;;;;;;;11.23;1.52;;;15.50;99.90;;;;;;5058489;28;20566;-69
2022/10/01 13:13:34;;;;;;;7.18;1.23;;;15.40;99.90;;;;;;5032984;28;20091;-69